Terminal Aerodrome Forecast
Issued by NWS

Home | Current Version | Previous Version | Graphics & Text | Print | Product List | Glossary On
Versions: 1 2 3 4 5 6 7 8 9 10 11 12 13 14 15 16 17 18 19 20 21
000
FTUS43 KGRB 221623 AAB
TAFCWA
TAF AMD
KCWA 221623Z 2216/2312 VRB03KT 1 1/2SM BR OVC003
     FM221900 VRB03KT 3SM BR OVC005
     FM230300 32004KT 1/2SM FG OVC003=

USA.gov is the U.S. government's official web portal to all federal, state and local government web resources and services.